Sudlersville, MD (21668)

3:22 AM EDT on July 23, 2017 (GMT -0400)
Barclay, MD | | Change Station

Elev 62 ft 39.14 °N, 75.81 °W | Updated 13 minutes ago

Overcast
Overcast
73.2 °F
Feels Like 73.2 °F
N
0.0
Wind Variable Wind from SSW

Today
High -- | Low -- °F
--% Chance of Precip.
Yesterday
High -- | Low -- °F
Precip. -- in
Pressure 29.75 in
Visibility 10.0 miles
Clouds Few 600 ft
Scattered Clouds 6000 ft
Mostly Cloudy 10000 ft
Dew Point 73 °F
Humidity 99%
Rainfall 0.00 in
Snow Depth Not available.
5:56 AM 8:23 PM
Waning Crescent, 0% visible
SPECI KDOV 230717Z AUTO 22007KT 10SM FEW006 SCT060 BKN100 23/23 A2974 RMK AO2 SLP074
Pressure 29.75 in
Visibility 10.0 miles
Clouds Few 600 ft
Scattered Clouds 6000 ft
Mostly Cloudy 10000 ft
Dew Point 73 °F
Humidity 99%
Rainfall 0.00 in
Snow Depth Not available.
5:56 AM 8:23 PM
Waning Crescent, 0% visible
SPECI KDOV 230717Z AUTO 22007KT 10SM FEW006 SCT060 BKN100 23/23 A2974 RMK AO2 SLP074

Get Severe Weather Alerts

Thanks for signing up!

Be on the lookout for a verification email in your inbox.

You'll start receiving the daily forecast at 6 AM.

×

10-Day Weather Forecast

Almanac

Astronomy

Jul. 23, 2017 Rise Set
Actual Time
Civil Twilight
Nautical Twilight
Astronomical Twilight
Moon
Length of Visible Light
Length of Day
Tomorrow will be .
, % of the Moon is Illuminated

Today's Extremes

State Highs State Lows

Community

WunderPhotos

Category 6

Welcome to Category 6. This is the collective home for Weather Underground's featured writeups by Dr. Jeff Masters (right), Bob Henson (left), Chris Burt, and other regular contributors.

Nearby

Air Quality

  Air Quality AQ Index Pollutant
Not available.

Snow Depth

Station Depth Elevation

Earthquake Activity

City Distance Mag. Time & Date
Minimum magnitude displayed is 2.5.

Coastal Water Temperatures

Place Temperature

Stations

Nearby Weather Stations

Station Location Temp. Windchill Dew Point Humidity Wind Precip. Elev Updated Type
                   

Watches & Warnings

There are currently no watches in effect.